Polarstern — DBLK — position and weather

sailwx.info

Track history (hours):
 
Tides and Currents Weather Stations Pressure Air Temp Water Temp Dewpoint Dewpoint Depression Visibility Wind Speed Wind Dir Waves Ship Positions

Oceanographic research ship Polarstern (Germany)

Detailed information on ship capabilities available from University of Delaware's Ocean Information Center and ARCUS's ALIAS (Arctic Logistics Information and Support) project.

Last reported at 2017-Feb-28 05:00 UTC. Time now 2017-Feb-28 05:47 UTC.
Position S 72°54' W 104°00'.

Length 117.9 m; beam 25 m; draft 10.7 m.

MMSI: 211202460.

Wind from 130 at 4 knots

Barometer 999.1 mb
Air temperature -1.6 ° C
Dewpoint -6.9 ° C
Water temperature -1.7 ° C

Date/timePositionNaut miles runAvg speedWind from/ knotsBaromVisibWave heightAir tempDewpointWater temp
2017-Feb-28 05:00S 72°54' W 104°00'4 3.5 130 / 4999.1 -1.6-6.9-1.7
2017-Feb-28 04:00S 72°54' W 104°12'7 7.0 300 / 6999.1 -1.6-4.6-1.4
2017-Feb-28 03:00S 72°48' W 104°00'8 8.0 230 / 4998.9 -1.8-5.5-1.3
2017-Feb-28 02:00S 72°42' W 104°18'7 7.0 060 / 16998.5 -1.9-6.5-1.3
2017-Feb-28 01:00S 72°48' W 104°06'6 6.0 160 / 4998.6 -1.6-5.3-1.4
2017-Feb-28 00:00S 72°54' W 104°06'2 1.8 170 / 8998.210.8 -2.0-5.8-1.4
2017-Feb-27 23:00S 72°54' W 104°00'6 6.3 170 / 10998.1 -2.2-6.6-1.4
2017-Feb-27 22:00S 73°00' W 103°54'0 0.0 160 / 8998.1 -2.2-6.5-1.4
2017-Feb-27 21:00S 73°00' W 103°54'2 1.8 250 / 4998.110.8 -2.1-7.3-1.3
2017-Feb-27 20:00S 73°00' W 103°48'0 0.0 270 / 12997.3 -2.3-7.1-1.4
2017-Feb-27 19:00S 73°00' W 103°48'0 0.0 040 / 4996.8 -1.7-7.9-1.3
2017-Feb-27 18:00S 73°00' W 103°48'0 0.0 100 / 12996.327.0 -2.3-9.8-1.4
2017-Feb-27 17:00S 73°00' W 103°48'0 0.0 080 / 8995.6 -1.2-9.9-1.3
2017-Feb-27 16:00S 73°00' W 103°48'0 0.0 100 / 14995.1 -1.6-8.8-1.4
2017-Feb-27 15:00S 73°00' W 103°48'7 7.0 100 / 6995.310.8 -1.8-9.3-1.4
2017-Feb-27 14:00S 73°00' W 104°12'1212.1 120 / 6994.7 -1.9-7.4-1.7
2017-Feb-27 13:00S 72°48' W 104°18'20 6.7 130 / 2994.1 -1.7-6.0-1.3
2017-Feb-27 10:00S 73°06' W 103°48'7 6.9 060 / 25991.4 -1.6-6.8-1.4
2017-Feb-27 09:00S 73°00' W 104°00'6 6.3 080 / 23991.1 -1.6-6.7-1.4
2017-Feb-27 08:00S 72°54' W 104°06'1312.5 070 / 19990.8 -1.3-5.9-1.4
2017-Feb-27 07:00S 72°42' W 104°18'6 6.3 070 / 23990.1 -1.2-5.6-1.3
2017-Feb-27 06:00S 72°48' W 104°24'1312.5 070 / 17990.3 -0.7-4.7-1.3
2017-Feb-27 05:00S 73°00' W 104°12'7 6.9 090 / 23989.6 -1.6-5.4-1.4
2017-Feb-27 04:00S 73°06' W 104°00'1313.1 070 / 27989.1 -1.4-5.9-1.3
2017-Feb-27 03:00S 73°18' W 104°18'1010.3 050 / 21988.4 -0.7-4.9-1.2
2017-Feb-27 02:00S 73°18' W 104°54'1313.4 060 / 19988.5 -0.9-4.1-0.7
2017-Feb-27 01:00S 73°24' W 105°36'9 8.6 070 / 19987.7 -0.9-3.8-0.9
2017-Feb-27 00:00S 73°24' W 106°06'9 8.6 090 / 8987.710.8 -0.4-2.8-0.5
2017-Feb-26 23:00S 73°24' W 106°36'3 3.4 060 / 14986.9 -0.1-2.8-0.3
2017-Feb-26 22:00S 73°24' W 106°48'7 6.9 060 / 14986.5 -0.3-2.6-0.1
2017-Feb-26 21:00S 73°18' W 107°00'0 0.0 050 / 16986.210.8 -0.1-2.7-0.1
2017-Feb-26 20:00S 73°18' W 107°00'5 5.2 060 / 17985.3 0.3-2.8-0.1
2017-Feb-26 19:00S 73°18' W 107°18'8 7.9 060 / 17984.8 -0.0-2.7-0.0
2017-Feb-26 18:00S 73°24' W 107°36'3 3.4 070 / 17984.510.8 0.2-2.7-0.1
2017-Feb-26 17:00S 73°24' W 107°48'2 1.7 070 / 17983.7 0.1-2.1-0.3
2017-Feb-26 16:00S 73°24' W 107°42'8 7.9 080 / 17983.6 -0.3-2.1-0.1
2017-Feb-26 15:00S 73°30' W 107°24'3 3.4 080 / 17983.410.8 -0.2-2.5-0.0
2017-Feb-26 14:00S 73°30' W 107°12'3 3.4 080 / 19983.3 -0.0-2.2-0.0
2017-Feb-26 13:00S 73°30' W 107°00'5 5.1 080 / 16983.3 -0.3-1.9-0.2
2017-Feb-26 12:00S 73°30' W 106°42'5 5.1 080 / 17982.710.8 -0.2-2.0-0.1
2017-Feb-26 11:00S 73°30' W 106°24'7 6.9 080 / 16982.3 0.1-2.5-0.2
2017-Feb-26 10:00S 73°24' W 106°12'3 3.4 070 / 17981.9 1.0-2.9-0.3
2017-Feb-26 09:00S 73°24' W 106°00'3 3.4 060 / 23981.0 -0.1-3.2-0.8
2017-Feb-26 08:00S 73°24' W 106°12'8 7.9 070 / 21980.4 -0.0-3.0-0.2
2017-Feb-26 07:00S 73°18' W 106°30'5 5.2 080 / 17980.0 0.1-2.6-0.4
2017-Feb-26 06:00S 73°18' W 106°48'5 5.2 090 / 17979.5 -0.4-2.2-0.1
2017-Feb-26 05:00S 73°18' W 107°06'5 5.2 090 / 21978.8 0.1-2.1-0.0
2017-Feb-26 04:00S 73°18' W 107°24'5 5.2 100 / 19978.3 -0.3-2.0 0.1
2017-Feb-26 03:00S 73°18' W 107°42'3 3.4 090 / 21978.0 0.1-1.8-0.2
2017-Feb-26 02:00S 73°18' W 107°54'7 6.9 100 / 17978.3 -0.3-1.2 0.1
2017-Feb-26 01:00S 73°12' W 107°42'5 5.2 090 / 17978.2 -0.5-1.4-0.0
2017-Feb-26 00:00S 73°12' W 107°24'5 5.2 090 / 16978.1 2.2 -0.5-1.5-0.0
2017-Feb-25 23:00S 73°12' W 107°06'2 1.7 080 / 21977.9 -0.2-2.5 0.1
2017-Feb-25 22:00S 73°12' W 107°00'0 0.0 080 / 19977.6 0.1-2.7-0.0
2017-Feb-25 21:00S 73°12' W 107°00'6 6.2 110 / 16977.710.8 -0.1-2.3-0.0
2017-Feb-25 20:00S 73°18' W 107°06'0 0.0 100 / 16977.8 -0.1-2.2-0.1
2017-Feb-25 17:00S 73°18' W 107°06'0 0.0 090 / 10977.4 -0.6-1.6-0.1
2017-Feb-25 16:00S 73°18' W 107°06'0 0.0 090 / 10977.3 -0.5-1.7-0.1
2017-Feb-25 15:00S 73°18' W 107°06'0 0.0 080 / 10977.3 5.4 -0.4-1.7-0.1
2017-Feb-25 14:00S 73°18' W 107°06'0 0.0 090 / 14977.0 -0.3-1.9-0.0
2017-Feb-25 13:00S 73°18' W 107°06'0 0.0 090 / 16976.8 -0.4-1.9-0.0
2017-Feb-25 12:00S 73°18' W 107°06'0 0.0 110 / 14976.710.8 -0.4-2.1-0.0
2017-Feb-25 11:00S 73°18' W 107°06'0 0.0 120 / 16976.7 -0.5-2.0-0.0
2017-Feb-25 10:00S 73°18' W 107°06'0 0.0 110 / 14976.8 -0.4-2.0-0.0
2017-Feb-25 09:00S 73°18' W 107°06'0 0.0 110 / 14976.9 -0.5-1.8-0.0
2017-Feb-25 08:00S 73°18' W 107°06'0 0.0 110 / 16976.7 -0.5-1.8-0.1
2017-Feb-25 06:00S 73°18' W 107°06'0 0.0 120 / 17976.5 -0.4-2.1-0.0
2017-Feb-25 05:00S 73°18' W 107°06'0 0.0 120 / 19976.4 -0.5-1.9-0.1
2017-Feb-25 04:00S 73°18' W 107°06'0 0.0 110 / 19976.5 -0.6-2.1-0.0
2017-Feb-25 03:00S 73°18' W 107°06'2 1.7 100 / 21976.4 -0.7-2.1-0.1
2017-Feb-25 02:00S 73°18' W 107°12'1212.1 110 / 23976.1 -0.9-2.1-0.0
2017-Feb-25 01:00S 73°06' W 107°18'1212.0 100 / 17976.2 -0.8-1.9 0.2
2017-Feb-25 00:00S 72°54' W 107°18'7 7.0 120 / 14976.210.8 -0.9-2.3-0.1
2017-Feb-24 23:00S 72°48' W 107°06'0 0.0 110 / 17976.2 -0.6-2.5-0.6
2017-Feb-24 22:00S 72°48' W 107°06'0 0.0 120 / 14976.5 -0.7-1.9-0.6
2017-Feb-24 21:00S 72°48' W 107°06'0 0.0 110 / 16976.710.8 -0.6-1.7-0.6
2017-Feb-24 20:00S 72°48' W 107°06'9 8.9 130 / 16976.7 -0.8-2.4-0.7
2017-Feb-24 19:00S 72°48' W 107°36'1212.4 140 / 16976.7 -0.5-2.1 0.1
2017-Feb-24 18:00S 72°48' W 108°18'1212.4 110 / 16976.710.8 -0.3-1.6-0.0
2017-Feb-24 17:00S 72°48' W 109°00'12 6.1 150 / 16977.1 -0.9-2.4-0.8
2017-Feb-24 15:00S 72°54' W 109°36'4 3.5 160 / 17978.010.8 -2.3-3.8-0.4
2017-Feb-24 14:00S 72°54' W 109°24'0 0.0 170 / 16978.5 -1.8-4.3-0.5
2017-Feb-24 13:00S 72°54' W 109°24'9 8.8 160 / 17978.8 -1.2-4.4-0.4
2017-Feb-24 12:00S 72°54' W 108°54'1110.6 160 / 17979.310.8 -1.1-3.6-0.1
2017-Feb-24 11:00S 73°00' W 108°24'9 9.2 150 / 17979.6 -1.0-3.6 0.1
2017-Feb-24 10:00S 73°06' W 108°00'1615.9 160 / 17979.7 -1.3-2.8-0.0
2017-Feb-24 09:00S 73°18' W 107°24'5 5.2 170 / 16979.9 -1.0-2.2-0.1
2017-Feb-24 08:00S 73°18' W 107°06'0 0.0 170 / 17979.7 -1.0-2.4-0.1
2017-Feb-24 07:00S 73°18' W 107°06'0 0.0 160 / 17980.1 -0.7-2.4 0.3
2017-Feb-24 06:00S 73°18' W 107°06'0 0.0 160 / 16980.4 -0.6-1.8 0.2
2017-Feb-24 05:00S 73°18' W 107°06'0 0.0 150 / 16980.6 -0.4-1.5 0.2
2017-Feb-24 04:00S 73°18' W 107°06'0 0.0 150 / 19980.6 -0.3-2.1 0.2
2017-Feb-24 02:00S 73°18' W 107°06'0 0.0 140 / 17981.0 -0.3-1.9 0.2
2017-Feb-24 01:00S 73°18' W 107°06'0 0.0 150 / 16981.3 -0.3-2.1 0.2
2017-Feb-24 00:00S 73°18' W 107°06'0 0.0 140 / 19981.610.8 -0.4-2.2 0.3
2017-Feb-23 23:00S 73°18' W 107°06'0 0.0 140 / 19981.8 -0.3-2.7 0.2
2017-Feb-23 22:00S 73°18' W 107°06'0 0.0 140 / 17982.3 -0.4-2.8 0.3
2017-Feb-23 21:00S 73°18' W 107°06'0 0.0 120 / 12982.410.8 -0.0-2.8 0.2
2017-Feb-23 20:00S 73°18' W 107°06'6 6.0 120 / 19982.6 -0.7-2.4 0.2
2017-Feb-23 19:00S 73°24' W 107°06'1313.0 120 / 17982.9 -1.1-2.9-0.0
2017-Feb-23 18:00S 73°36' W 107°24'1010.4 110 / 17983.110.8 -1.2-3.2-0.0
2017-Feb-23 17:00S 73°42' W 107°54'8 8.4 150 / 21983.4 -1.4-2.9 0.2
2017-Feb-23 16:00S 73°42' W 108°24'6 6.2 170 / 21984.2 -4.1-5.5-0.1
2017-Feb-23 15:00S 73°48' W 108°30'1010.3 160 / 21984.7 2.2 -5.1-5.7-0.1
2017-Feb-23 14:00S 73°42' W 108°00'1010.1 140 / 23984.3 -1.8-3.7 0.2
2017-Feb-23 13:00S 73°42' W 107°24'8 8.4 140 / 21984.7 -1.6-3.2 0.3
2017-Feb-23 12:00S 73°42' W 107°54'7 6.9 150 / 21984.910.8 -2.0-3.5 0.2
2017-Feb-23 11:00S 73°48' W 108°06'7 6.9 140 / 19985.8 -2.3-3.8-0.3
2017-Feb-23 10:00S 73°54' W 108°18'8 7.8 170 / 17986.3 -5.1-6.1-0.2
2017-Feb-23 09:00S 73°48' W 108°36'9 9.0 160 / 19987.0 -5.6-6.5-0.1
2017-Feb-23 08:00S 73°54' W 108°12'8 8.3 150 / 16987.2 -4.8-6.0-0.5
2017-Feb-23 07:00S 73°54' W 107°42'1313.0 140 / 19987.2 -1.7-3.6-0.4
2017-Feb-23 06:00S 73°42' W 107°24'7 6.9 120 / 19987.2 -1.3-3.0 0.3
2017-Feb-23 05:00S 73°36' W 107°12'2 1.7 120 / 19986.9 -0.9-3.1 0.2
2017-Feb-23 04:00S 73°36' W 107°06'0 0.0 120 / 19987.6 -1.0-2.5 0.1
2017-Feb-23 03:00S 73°36' W 107°06'0 0.0 110 / 16987.9 -1.0-3.1 0.1
2017-Feb-23 02:00S 73°36' W 107°06'0 0.0 110 / 17988.4 -1.4-2.8 0.1
2017-Feb-23 01:00S 73°36' W 107°06'0 0.0 130 / 19988.6 -1.4-1.9 0.2
2017-Feb-23 00:00S 73°36' W 107°06'0 0.0 130 / 21988.810.8 -1.3-2.5 0.2
2017-Feb-22 23:00S 73°36' W 107°06'0 0.0 100 / 17989.3 -1.1-3.4 0.2
2017-Feb-22 22:00S 73°36' W 107°06'0 0.0 100 / 19989.5 -1.4-3.4 0.2
2017-Feb-22 21:00S 73°36' W 107°06'0 0.0 110 / 17989.710.8 -1.3-3.5 0.2
2017-Feb-22 20:00S 73°36' W 107°06'0 0.0 110 / 19989.9 -1.3-3.7 0.2
2017-Feb-22 19:00S 73°36' W 107°06'0 0.0 110 / 21989.8 -1.2-3.6 0.1
2017-Feb-22 18:00S 73°36' W 107°06'0 0.0 100 / 21989.910.8 -1.3-3.4 0.2
2017-Feb-22 17:00S 73°36' W 107°06'0 0.0 100 / 25989.6 -1.1-3.5 0.2
2017-Feb-22 16:00S 73°36' W 107°06'0 0.0 100 / 23989.9 -1.0-2.9 0.2
2017-Feb-22 15:00S 73°36' W 107°06'0 0.0 100 / 25989.7 5.4 -1.3-3.0 0.3
2017-Feb-22 14:00S 73°36' W 107°06'0 0.0 100 / 21989.7 -1.0-3.1 0.2
2017-Feb-22 13:00S 73°36' W 107°06'0 0.0 110 / 21989.7 -1.4-2.4 0.2
2017-Feb-22 10:00S 73°36' W 107°06'0 0.0 120 / 25989.3 -1.5-4.3 0.2
2017-Feb-22 09:00S 73°36' W 107°06'0 0.0 120 / 27989.4 -1.4-4.5 0.2
2017-Feb-22 08:00S 73°36' W 107°06'0 0.0 110 / 25989.4 -1.6-3.3 0.3
2017-Feb-22 07:00S 73°36' W 107°06'0 0.0 110 / 21989.5 -2.1-4.1 0.2
2017-Feb-22 06:00S 73°36' W 107°06'0 0.0 110 / 21989.6 -2.2-6.3 0.2
2017-Feb-22 05:00S 73°36' W 107°06'0 0.0 110 / 19989.5 -2.2-6.2 0.2
2017-Feb-22 04:00S 73°36' W 107°06'0 0.0 110 / 19989.7 -2.3-6.5 0.2
2017-Feb-22 03:00S 73°36' W 107°06'0 0.0 110 / 19989.9 -2.3-6.9 0.2
2017-Feb-22 01:00S 73°36' W 107°06'0 0.0 100 / 19990.3 -2.3-6.9 0.2
2017-Feb-22 00:00S 73°36' W 107°06'0 0.0 110 / 17990.510.8 -2.3-5.9 0.3
2017-Feb-21 23:00S 73°36' W 107°06'2 1.7 100 / 17990.6 -2.3-5.9 0.2
2017-Feb-21 22:00S 73°36' W 107°00'6 6.2 080 / 17990.6 -2.4-6.3 0.3
2017-Feb-21 21:00S 73°30' W 107°06'7 6.9 080 / 21990.610.8 -2.3-6.2-0.0
2017-Feb-21 20:00S 73°24' W 106°54'6 6.2 080 / 23990.3 -2.4-6.1 0.2
2017-Feb-21 19:00S 73°18' W 107°00'0 0.0 090 / 23989.6 -2.3-6.9 0.2
2017-Feb-21 18:00S 73°18' W 107°00'6 6.2 090 / 25989.910.8 -2.2-5.9 0.1
2017-Feb-21 17:00S 73°24' W 106°54'6 6.2 090 / 25990.3 -1.9-5.9 0.2
2017-Feb-21 16:00S 73°30' W 106°48'6 6.2 080 / 27990.3 -1.8-5.9 0.2
2017-Feb-21 15:00S 73°36' W 106°42'6 6.2 080 / 29990.610.8 -1.8-6.4 0.3
2017-Feb-21 14:00S 73°42' W 106°36'3 3.4 070 / 27990.8 -1.6-5.8 0.4
2017-Feb-21 13:00S 73°42' W 106°24'6 6.2 080 / 23990.9 -1.6-4.7 0.5
2017-Feb-21 12:00S 73°48' W 106°18'6 6.2 080 / 27991.010.8 -1.4-4.5 0.4
2017-Feb-21 11:00S 73°54' W 106°12'6 6.0 080 / 25991.1 -1.3-4.8 0.4
2017-Feb-21 10:00S 74°00' W 106°12'6 6.2 080 / 23991.2 -1.1-4.7 0.2
2017-Feb-21 09:00S 74°06' W 106°06'3 3.3 060 / 27990.3 -1.1-5.3 0.2
2017-Feb-21 08:00S 74°06' W 105°54'8 7.8 070 / 23991.2 -0.8-4.7 0.4
2017-Feb-21 07:00S 74°12' W 105°36'3 3.3 070 / 21991.1 -0.5-4.9 0.4
2017-Feb-21 06:00S 74°12' W 105°24'7 6.8 060 / 19991.3 -0.3-4.3 0.3
2017-Feb-21 05:00S 74°18' W 105°12'5 4.9 050 / 17991.8 -0.4-4.2 0.1
2017-Feb-21 04:00S 74°18' W 104°54'6 6.2 040 / 23991.1 -0.6-3.5-0.1
2017-Feb-21 03:00S 74°24' W 104°48'3 3.2 040 / 25990.7 -0.6-3.7-0.1
2017-Feb-21 02:00S 74°24' W 105°00'3 3.2 090 / 14991.4 -0.5-3.6-0.1
2017-Feb-21 01:00S 74°24' W 104°48'0 0.0 080 / 16991.6 -0.6-4.0-0.1
2017-Feb-21 00:00S 74°24' W 104°48'2 1.6 070 / 16991.310.8 -0.5-3.7-0.1
2017-Feb-20 23:00S 74°24' W 104°42'0 0.0 050 / 16991.1 -0.5-3.6-0.1
2017-Feb-20 22:00S 74°24' W 104°42'0 0.0 050 / 16990.9 -0.5-3.4-0.1
2017-Feb-20 21:00S 74°24' W 104°42'6 3.0 060 / 14990.710.8 -0.8-4.0-0.1
2017-Feb-20 19:00S 74°18' W 104°42'1413.6 010 / 8990.5 -0.9-3.6-0.1
2017-Feb-20 18:00S 74°30' W 104°18'1312.7 070 / 17991.1 5.4 -1.1-4.3-0.3
2017-Feb-20 17:00S 74°36' W 103°36'1515.3 100 / 12991.4 -0.9-4.4-0.1
2017-Feb-20 16:00S 74°48' W 103°00'1111.2 100 / 10991.6 -1.4-3.8-0.2
2017-Feb-20 15:00S 74°54' W 102°24'9 8.7 100 / 10991.810.8 -2.2-4.4-0.2
2017-Feb-20 14:00S 75°00' W 102°00'0 0.0 110 / 12991.8 -3.9-6.6-0.3
2017-Feb-20 13:00S 75°00' W 102°00'1312.9 110 / 14991.5 -4.3-6.2 0.1
2017-Feb-20 12:00S 74°48' W 102°18'0 0.0 120 / 6991.410.8 -2.9-4.3-0.2
2017-Feb-20 11:00S 74°48' W 102°18'7 6.8 140 / 6991.4 -3.7-5.7-0.2
2017-Feb-20 10:00S 74°42' W 102°30'7 6.8 140 / 10991.2 -3.1-5.3-0.1
2017-Feb-20 09:00S 74°36' W 102°42'2 1.6 130 / 8991.2 -1.5-2.7-0.2
2017-Feb-20 08:00S 74°36' W 102°36'6 6.0 130 / 6991.5 -1.4-2.5-0.2
2017-Feb-20 07:00S 74°30' W 102°36'0 0.0 090 / 6991.7 -1.4-4.5-0.3
2017-Feb-20 06:00S 74°30' W 102°36'0 0.0 080 / 6991.7 -1.3-3.8-0.2
2017-Feb-20 05:00S 74°30' W 102°36'2 1.6 070 / 6991.7 -1.3-4.5-0.3
2017-Feb-20 04:00S 74°30' W 102°30'27 9.1 080 / 6991.8 -1.2-5.3-0.1
2017-Feb-20 01:00S 74°48' W 101°12'3 3.1 140 / 6992.6 -1.2-4.3-0.0
2017-Feb-20 00:00S 74°48' W 101°00'0 0.0 140 / 6992.627.0 -1.5-4.4 0.3
2017-Feb-19 22:00S 74°48' W 101°00'0 0.0 180 / 4992.9 -1.4-4.8 0.1
2017-Feb-19 21:00S 74°48' W 101°00'1111.2 110 / 2993.110.8 -1.9-5.2 0.1
2017-Feb-19 20:00S 74°42' W 101°36'0 0.0 130 / 2993.2 -1.3-5.0 0.1
2017-Feb-19 19:00S 74°42' W 101°36'0 0.0 050 / 2993.0 -1.1-4.8 0.2
2017-Feb-19 18:00S 74°42' W 101°36'0 0.0 320 / 2992.810.8 -0.1-6.0 0.2
2017-Feb-19 17:00S 74°42' W 101°36'0 0.0 070 / 2992.6 -0.9-5.9 0.3
2017-Feb-19 16:00S 74°42' W 101°36'0 0.0 050 / 4992.6 -1.1-6.4-0.0
2017-Feb-19 15:00S 74°42' W 101°36'2 1.6 060 / 2992.627.0 -0.2-5.0-0.0
2017-Feb-19 14:00S 74°42' W 101°42'1212.1 160 / 2992.6 -1.8-4.6-0.0
2017-Feb-19 13:00S 74°54' W 101°48'6 6.2 100 / 10993.0 -1.6-3.5-0.0
2017-Feb-19 12:00S 75°00' W 101°54'0 0.0 130 / 12993.210.8 -2.9-5.3-0.0
2017-Feb-19 11:00S 75°00' W 101°54'0 0.0 120 / 12993.1 -3.0-5.1 0.1
2017-Feb-19 10:00S 75°00' W 101°54'0 0.0 110 / 12993.1 -2.5-4.5 0.1
2017-Feb-19 09:00S 75°00' W 101°54'0 0.0 120 / 14993.2 -2.1-4.4-0.1
2017-Feb-19 08:00S 75°00' W 101°54'0 0.0 090 / 14993.3 -1.3-3.9 0.1
2017-Feb-19 07:00S 75°00' W 101°54'0 0.0 100 / 14993.4 -1.4-3.4 0.1
2017-Feb-19 06:00S 75°00' W 101°54'0 0.0 110 / 17993.6 -1.5-4.1 0.1
2017-Feb-19 05:00S 75°00' W 101°54'0 0.0 110 / 12994.1 -1.8-4.4 0.1
2017-Feb-19 04:00S 75°00' W 101°54'0 0.0 100 / 12994.2 -1.1-4.1 0.2
2017-Feb-19 03:00S 75°00' W 101°54'0 0.0 080 / 10994.5 -0.5-3.7 0.1
2017-Feb-19 02:00S 75°00' W 101°54'0 0.0 050 / 6994.9 -0.2-3.5 0.1
2017-Feb-19 01:00S 75°00' W 101°54'0 0.0 020 / 8995.0 -0.2-3.2 0.3
2017-Feb-19 00:00S 75°00' W 101°54'0 0.0 995.110.8 -0.1-1.6 0.2
2017-Feb-18 23:00S 75°00' W 101°54'0 0.0 090 / 6995.4 -0.1-2.4 0.2
2017-Feb-18 22:00S 75°00' W 101°54'0 0.0 100 / 6995.6 -0.0-3.6-0.0
2017-Feb-18 21:00S 75°00' W 101°54'0 0.0 110 / 6995.910.8 -0.4-3.9 0.2
2017-Feb-18 20:00S 75°00' W 101°54'5 4.7 130 / 6996.1 -1.6-3.7 0.3
2017-Feb-18 19:00S 75°00' W 102°12'6 6.2 330 / 8996.1 0.3-4.3-0.1
2017-Feb-18 18:00S 74°54' W 102°18'8 7.6 110 / 10996.0 5.4 -1.9-3.9-0.3
2017-Feb-18 17:00S 75°00' W 102°00'2 1.6 140 / 10996.0 -2.2-5.6-0.0
2017-Feb-18 16:00S 75°00' W 101°54'0 0.0 110 / 10996.2 -3.2-5.6 0.1
2017-Feb-18 15:00S 75°00' W 101°54'0 0.0 120 / 12996.210.8 -2.0-5.6-0.0
2017-Feb-18 14:00S 75°00' W 101°54'0 0.0 130 / 12996.1 -2.9-4.6-0.1
2017-Feb-18 13:00S 75°00' W 101°54'2 1.6 130 / 12996.3 -3.9-5.3-0.1
2017-Feb-18 12:00S 75°00' W 101°48'1413.5 110 / 14996.210.8 -2.7-5.2-0.1
2017-Feb-18 11:00S 74°48' W 101°24'6 6.3 090 / 14995.9 -0.6-4.2-0.1
2017-Feb-18 10:00S 74°48' W 101°00'9 8.7 060 / 19995.7 -2.3-6.3 0.1
2017-Feb-18 09:00S 74°42' W 101°24'5 4.7 060 / 19995.4 -1.1-6.0-0.1
2017-Feb-18 08:00S 74°42' W 101°42'2 1.6 090 / 16995.7 -1.3-5.5-0.0
2017-Feb-18 07:00S 74°42' W 101°36'8 7.9 080 / 14996.0 -0.5-5.7-0.0
2017-Feb-18 06:00S 74°42' W 101°06'7 6.8 070 / 14996.3 -1.4-5.4-0.0
2017-Feb-18 05:00S 74°48' W 100°54'   070 / 6996.3 -0.0-4.4 0.3
Track history (hours):
 
Tides and Currents Weather Stations Pressure Air Temp Water Temp Dewpoint Dewpoint Depression Visibility Wind Speed Wind Dir Waves Ship Positions

Oceanographic research ship Polarstern (Germany)

Detailed information on ship capabilities available from University of Delaware's Ocean Information Center and ARCUS's ALIAS (Arctic Logistics Information and Support) project.

Last reported at 2017-Feb-28 05:00 UTC. Time now 2017-Feb-28 05:47 UTC.
Position S 72°54' W 104°00'.

Length 117.9 m; beam 25 m; draft 10.7 m.

MMSI: 211202460.

Wind from 130 at 4 knots

Barometer 999.1 mb
Air temperature -1.6 ° C
Dewpoint -6.9 ° C
Water temperature -1.7 ° C

Date/timePositionNaut miles runAvg speedWind from/ knotsBaromVisibWave heightAir tempDewpointWater temp
2017-Feb-28 05:00S 72°54' W 104°00'4 3.5 130 / 4999.1 -1.6-6.9-1.7
2017-Feb-28 04:00S 72°54' W 104°12'7 7.0 300 / 6999.1 -1.6-4.6-1.4
2017-Feb-28 03:00S 72°48' W 104°00'8 8.0 230 / 4998.9 -1.8-5.5-1.3
2017-Feb-28 02:00S 72°42' W 104°18'7 7.0 060 / 16998.5 -1.9-6.5-1.3
2017-Feb-28 01:00S 72°48' W 104°06'6 6.0 160 / 4998.6 -1.6-5.3-1.4
2017-Feb-28 00:00S 72°54' W 104°06'2 1.8 170 / 8998.210.8 -2.0-5.8-1.4
2017-Feb-27 23:00S 72°54' W 104°00'6 6.3 170 / 10998.1 -2.2-6.6-1.4
2017-Feb-27 22:00S 73°00' W 103°54'0 0.0 160 / 8998.1 -2.2-6.5-1.4
2017-Feb-27 21:00S 73°00' W 103°54'2 1.8 250 / 4998.110.8 -2.1-7.3-1.3
2017-Feb-27 20:00S 73°00' W 103°48'0 0.0 270 / 12997.3 -2.3-7.1-1.4
2017-Feb-27 19:00S 73°00' W 103°48'0 0.0 040 / 4996.8 -1.7-7.9-1.3
2017-Feb-27 18:00S 73°00' W 103°48'0 0.0 100 / 12996.327.0 -2.3-9.8-1.4
2017-Feb-27 17:00S 73°00' W 103°48'0 0.0 080 / 8995.6 -1.2-9.9-1.3
2017-Feb-27 16:00S 73°00' W 103°48'0 0.0 100 / 14995.1 -1.6-8.8-1.4
2017-Feb-27 15:00S 73°00' W 103°48'7 7.0 100 / 6995.310.8 -1.8-9.3-1.4
2017-Feb-27 14:00S 73°00' W 104°12'1212.1 120 / 6994.7 -1.9-7.4-1.7
2017-Feb-27 13:00S 72°48' W 104°18'20 6.7 130 / 2994.1 -1.7-6.0-1.3
2017-Feb-27 10:00S 73°06' W 103°48'7 6.9 060 / 25991.4 -1.6-6.8-1.4
2017-Feb-27 09:00S 73°00' W 104°00'6 6.3 080 / 23991.1 -1.6-6.7-1.4
2017-Feb-27 08:00S 72°54' W 104°06'1312.5 070 / 19990.8 -1.3-5.9-1.4
2017-Feb-27 07:00S 72°42' W 104°18'6 6.3 070 / 23990.1 -1.2-5.6-1.3
2017-Feb-27 06:00S 72°48' W 104°24'1312.5 070 / 17990.3 -0.7-4.7-1.3
2017-Feb-27 05:00S 73°00' W 104°12'7 6.9 090 / 23989.6 -1.6-5.4-1.4
2017-Feb-27 04:00S 73°06' W 104°00'1313.1 070 / 27989.1 -1.4-5.9-1.3
2017-Feb-27 03:00S 73°18' W 104°18'1010.3 050 / 21988.4 -0.7-4.9-1.2
2017-Feb-27 02:00S 73°18' W 104°54'1313.4 060 / 19988.5 -0.9-4.1-0.7
2017-Feb-27 01:00S 73°24' W 105°36'9 8.6 070 / 19987.7 -0.9-3.8-0.9
2017-Feb-27 00:00S 73°24' W 106°06'9 8.6 090 / 8987.710.8 -0.4-2.8-0.5
2017-Feb-26 23:00S 73°24' W 106°36'3 3.4 060 / 14986.9 -0.1-2.8-0.3
2017-Feb-26 22:00S 73°24' W 106°48'7 6.9 060 / 14986.5 -0.3-2.6-0.1
2017-Feb-26 21:00S 73°18' W 107°00'0 0.0 050 / 16986.210.8 -0.1-2.7-0.1
2017-Feb-26 20:00S 73°18' W 107°00'5 5.2 060 / 17985.3 0.3-2.8-0.1
2017-Feb-26 19:00S 73°18' W 107°18'8 7.9 060 / 17984.8 -0.0-2.7-0.0
2017-Feb-26 18:00S 73°24' W 107°36'3 3.4 070 / 17984.510.8 0.2-2.7-0.1
2017-Feb-26 17:00S 73°24' W 107°48'2 1.7 070 / 17983.7 0.1-2.1-0.3
2017-Feb-26 16:00S 73°24' W 107°42'8 7.9 080 / 17983.6 -0.3-2.1-0.1
2017-Feb-26 15:00S 73°30' W 107°24'3 3.4 080 / 17983.410.8 -0.2-2.5-0.0
2017-Feb-26 14:00S 73°30' W 107°12'3 3.4 080 / 19983.3 -0.0-2.2-0.0
2017-Feb-26 13:00S 73°30' W 107°00'5 5.1 080 / 16983.3 -0.3-1.9-0.2
2017-Feb-26 12:00S 73°30' W 106°42'5 5.1 080 / 17982.710.8 -0.2-2.0-0.1
2017-Feb-26 11:00S 73°30' W 106°24'7 6.9 080 / 16982.3 0.1-2.5-0.2
2017-Feb-26 10:00S 73°24' W 106°12'3 3.4 070 / 17981.9 1.0-2.9-0.3
2017-Feb-26 09:00S 73°24' W 106°00'3 3.4 060 / 23981.0 -0.1-3.2-0.8
2017-Feb-26 08:00S 73°24' W 106°12'8 7.9 070 / 21980.4 -0.0-3.0-0.2
2017-Feb-26 07:00S 73°18' W 106°30'5 5.2 080 / 17980.0 0.1-2.6-0.4
2017-Feb-26 06:00S 73°18' W 106°48'5 5.2 090 / 17979.5 -0.4-2.2-0.1
2017-Feb-26 05:00S 73°18' W 107°06'5 5.2 090 / 21978.8 0.1-2.1-0.0
2017-Feb-26 04:00S 73°18' W 107°24'5 5.2 100 / 19978.3 -0.3-2.0 0.1
2017-Feb-26 03:00S 73°18' W 107°42'3 3.4 090 / 21978.0 0.1-1.8-0.2
2017-Feb-26 02:00S 73°18' W 107°54'7 6.9 100 / 17978.3 -0.3-1.2 0.1
2017-Feb-26 01:00S 73°12' W 107°42'5 5.2 090 / 17978.2 -0.5-1.4-0.0
2017-Feb-26 00:00S 73°12' W 107°24'5 5.2 090 / 16978.1 2.2 -0.5-1.5-0.0
2017-Feb-25 23:00S 73°12' W 107°06'2 1.7 080 / 21977.9 -0.2-2.5 0.1
2017-Feb-25 22:00S 73°12' W 107°00'0 0.0 080 / 19977.6 0.1-2.7-0.0
2017-Feb-25 21:00S 73°12' W 107°00'6 6.2 110 / 16977.710.8 -0.1-2.3-0.0
2017-Feb-25 20:00S 73°18' W 107°06'0 0.0 100 / 16977.8 -0.1-2.2-0.1
2017-Feb-25 17:00S 73°18' W 107°06'0 0.0 090 / 10977.4 -0.6-1.6-0.1
2017-Feb-25 16:00S 73°18' W 107°06'0 0.0 090 / 10977.3 -0.5-1.7-0.1
2017-Feb-25 15:00S 73°18' W 107°06'0 0.0 080 / 10977.3 5.4 -0.4-1.7-0.1
2017-Feb-25 14:00S 73°18' W 107°06'0 0.0 090 / 14977.0 -0.3-1.9-0.0
2017-Feb-25 13:00S 73°18' W 107°06'0 0.0 090 / 16976.8 -0.4-1.9-0.0
2017-Feb-25 12:00S 73°18' W 107°06'0 0.0 110 / 14976.710.8 -0.4-2.1-0.0
2017-Feb-25 11:00S 73°18' W 107°06'0 0.0 120 / 16976.7 -0.5-2.0-0.0
2017-Feb-25 10:00S 73°18' W 107°06'0 0.0 110 / 14976.8 -0.4-2.0-0.0
2017-Feb-25 09:00S 73°18' W 107°06'0 0.0 110 / 14976.9 -0.5-1.8-0.0
2017-Feb-25 08:00S 73°18' W 107°06'0 0.0 110 / 16976.7 -0.5-1.8-0.1
2017-Feb-25 06:00S 73°18' W 107°06'0 0.0 120 / 17976.5 -0.4-2.1-0.0
2017-Feb-25 05:00S 73°18' W 107°06'0 0.0 120 / 19976.4 -0.5-1.9-0.1
2017-Feb-25 04:00S 73°18' W 107°06'0 0.0 110 / 19976.5 -0.6-2.1-0.0
2017-Feb-25 03:00S 73°18' W 107°06'2 1.7 100 / 21976.4 -0.7-2.1-0.1
2017-Feb-25 02:00S 73°18' W 107°12'1212.1 110 / 23976.1 -0.9-2.1-0.0
2017-Feb-25 01:00S 73°06' W 107°18'1212.0 100 / 17976.2 -0.8-1.9 0.2
2017-Feb-25 00:00S 72°54' W 107°18'7 7.0 120 / 14976.210.8 -0.9-2.3-0.1
2017-Feb-24 23:00S 72°48' W 107°06'0 0.0 110 / 17976.2 -0.6-2.5-0.6
2017-Feb-24 22:00S 72°48' W 107°06'0 0.0 120 / 14976.5 -0.7-1.9-0.6
2017-Feb-24 21:00S 72°48' W 107°06'0 0.0 110 / 16976.710.8 -0.6-1.7-0.6
2017-Feb-24 20:00S 72°48' W 107°06'9 8.9 130 / 16976.7 -0.8-2.4-0.7
2017-Feb-24 19:00S 72°48' W 107°36'1212.4 140 / 16976.7 -0.5-2.1 0.1
2017-Feb-24 18:00S 72°48' W 108°18'1212.4 110 / 16976.710.8 -0.3-1.6-0.0
2017-Feb-24 17:00S 72°48' W 109°00'12 6.1 150 / 16977.1 -0.9-2.4-0.8
2017-Feb-24 15:00S 72°54' W 109°36'4 3.5 160 / 17978.010.8 -2.3-3.8-0.4
2017-Feb-24 14:00S 72°54' W 109°24'0 0.0 170 / 16978.5 -1.8-4.3-0.5
2017-Feb-24 13:00S 72°54' W 109°24'9 8.8 160 / 17978.8 -1.2-4.4-0.4
2017-Feb-24 12:00S 72°54' W 108°54'1110.6 160 / 17979.310.8 -1.1-3.6-0.1
2017-Feb-24 11:00S 73°00' W 108°24'9 9.2 150 / 17979.6 -1.0-3.6 0.1
2017-Feb-24 10:00S 73°06' W 108°00'1615.9 160 / 17979.7 -1.3-2.8-0.0
2017-Feb-24 09:00S 73°18' W 107°24'5 5.2 170 / 16979.9 -1.0-2.2-0.1
2017-Feb-24 08:00S 73°18' W 107°06'0 0.0 170 / 17979.7 -1.0-2.4-0.1
2017-Feb-24 07:00S 73°18' W 107°06'0 0.0 160 / 17980.1 -0.7-2.4 0.3
2017-Feb-24 06:00S 73°18' W 107°06'0 0.0 160 / 16980.4 -0.6-1.8 0.2
2017-Feb-24 05:00S 73°18' W 107°06'0 0.0 150 / 16980.6 -0.4-1.5 0.2
2017-Feb-24 04:00S 73°18' W 107°06'0 0.0 150 / 19980.6 -0.3-2.1 0.2
2017-Feb-24 02:00S 73°18' W 107°06'0 0.0 140 / 17981.0 -0.3-1.9 0.2
2017-Feb-24 01:00S 73°18' W 107°06'0 0.0 150 / 16981.3 -0.3-2.1 0.2
2017-Feb-24 00:00S 73°18' W 107°06'0 0.0 140 / 19981.610.8 -0.4-2.2 0.3
2017-Feb-23 23:00S 73°18' W 107°06'0 0.0 140 / 19981.8 -0.3-2.7 0.2
2017-Feb-23 22:00S 73°18' W 107°06'0 0.0 140 / 17982.3 -0.4-2.8 0.3
2017-Feb-23 21:00S 73°18' W 107°06'0 0.0 120 / 12982.410.8 -0.0-2.8 0.2
2017-Feb-23 20:00S 73°18' W 107°06'6 6.0 120 / 19982.6 -0.7-2.4 0.2
2017-Feb-23 19:00S 73°24' W 107°06'1313.0 120 / 17982.9 -1.1-2.9-0.0
2017-Feb-23 18:00S 73°36' W 107°24'1010.4 110 / 17983.110.8 -1.2-3.2-0.0
2017-Feb-23 17:00S 73°42' W 107°54'8 8.4 150 / 21983.4 -1.4-2.9 0.2
2017-Feb-23 16:00S 73°42' W 108°24'6 6.2 170 / 21984.2 -4.1-5.5-0.1
2017-Feb-23 15:00S 73°48' W 108°30'1010.3 160 / 21984.7 2.2 -5.1-5.7-0.1
2017-Feb-23 14:00S 73°42' W 108°00'1010.1 140 / 23984.3 -1.8-3.7 0.2
2017-Feb-23 13:00S 73°42' W 107°24'8 8.4 140 / 21984.7 -1.6-3.2 0.3
2017-Feb-23 12:00S 73°42' W 107°54'7 6.9 150 / 21984.910.8 -2.0-3.5 0.2
2017-Feb-23 11:00S 73°48' W 108°06'7 6.9 140 / 19985.8 -2.3-3.8-0.3
2017-Feb-23 10:00S 73°54' W 108°18'8 7.8 170 / 17986.3 -5.1-6.1-0.2
2017-Feb-23 09:00S 73°48' W 108°36'9 9.0 160 / 19987.0 -5.6-6.5-0.1
2017-Feb-23 08:00S 73°54' W 108°12'8 8.3 150 / 16987.2 -4.8-6.0-0.5
2017-Feb-23 07:00S 73°54' W 107°42'1313.0 140 / 19987.2 -1.7-3.6-0.4
2017-Feb-23 06:00S 73°42' W 107°24'7 6.9 120 / 19987.2 -1.3-3.0 0.3
2017-Feb-23 05:00S 73°36' W 107°12'2 1.7 120 / 19986.9 -0.9-3.1 0.2
2017-Feb-23 04:00S 73°36' W 107°06'0 0.0 120 / 19987.6 -1.0-2.5 0.1
2017-Feb-23 03:00S 73°36' W 107°06'0 0.0 110 / 16987.9 -1.0-3.1 0.1
2017-Feb-23 02:00S 73°36' W 107°06'0 0.0 110 / 17988.4 -1.4-2.8 0.1
2017-Feb-23 01:00S 73°36' W 107°06'0 0.0 130 / 19988.6 -1.4-1.9 0.2
2017-Feb-23 00:00S 73°36' W 107°06'0 0.0 130 / 21988.810.8 -1.3-2.5 0.2
2017-Feb-22 23:00S 73°36' W 107°06'0 0.0 100 / 17989.3 -1.1-3.4 0.2
2017-Feb-22 22:00S 73°36' W 107°06'0 0.0 100 / 19989.5 -1.4-3.4 0.2
2017-Feb-22 21:00S 73°36' W 107°06'0 0.0 110 / 17989.710.8 -1.3-3.5 0.2
2017-Feb-22 20:00S 73°36' W 107°06'0 0.0 110 / 19989.9 -1.3-3.7 0.2
2017-Feb-22 19:00S 73°36' W 107°06'0 0.0 110 / 21989.8 -1.2-3.6 0.1
2017-Feb-22 18:00S 73°36' W 107°06'0 0.0 100 / 21989.910.8 -1.3-3.4 0.2
2017-Feb-22 17:00S 73°36' W 107°06'0 0.0 100 / 25989.6 -1.1-3.5 0.2
2017-Feb-22 16:00S 73°36' W 107°06'0 0.0 100 / 23989.9 -1.0-2.9 0.2
2017-Feb-22 15:00S 73°36' W 107°06'0 0.0 100 / 25989.7 5.4 -1.3-3.0 0.3
2017-Feb-22 14:00S 73°36' W 107°06'0 0.0 100 / 21989.7 -1.0-3.1 0.2
2017-Feb-22 13:00S 73°36' W 107°06'0 0.0 110 / 21989.7 -1.4-2.4 0.2
2017-Feb-22 10:00S 73°36' W 107°06'0 0.0 120 / 25989.3 -1.5-4.3 0.2
2017-Feb-22 09:00S 73°36' W 107°06'0 0.0 120 / 27989.4 -1.4-4.5 0.2
2017-Feb-22 08:00S 73°36' W 107°06'0 0.0 110 / 25989.4 -1.6-3.3 0.3
2017-Feb-22 07:00S 73°36' W 107°06'0 0.0 110 / 21989.5 -2.1-4.1 0.2
2017-Feb-22 06:00S 73°36' W 107°06'0 0.0 110 / 21989.6 -2.2-6.3 0.2
2017-Feb-22 05:00S 73°36' W 107°06'0 0.0 110 / 19989.5 -2.2-6.2 0.2
2017-Feb-22 04:00S 73°36' W 107°06'0 0.0 110 / 19989.7 -2.3-6.5 0.2
2017-Feb-22 03:00S 73°36' W 107°06'0 0.0 110 / 19989.9 -2.3-6.9 0.2
2017-Feb-22 01:00S 73°36' W 107°06'0 0.0 100 / 19990.3 -2.3-6.9 0.2
2017-Feb-22 00:00S 73°36' W 107°06'0 0.0 110 / 17990.510.8 -2.3-5.9 0.3
2017-Feb-21 23:00S 73°36' W 107°06'2 1.7 100 / 17990.6 -2.3-5.9 0.2
2017-Feb-21 22:00S 73°36' W 107°00'6 6.2 080 / 17990.6 -2.4-6.3 0.3
2017-Feb-21 21:00S 73°30' W 107°06'7 6.9 080 / 21990.610.8 -2.3-6.2-0.0
2017-Feb-21 20:00S 73°24' W 106°54'6 6.2 080 / 23990.3 -2.4-6.1 0.2
2017-Feb-21 19:00S 73°18' W 107°00'0 0.0 090 / 23989.6 -2.3-6.9 0.2
2017-Feb-21 18:00S 73°18' W 107°00'6 6.2 090 / 25989.910.8 -2.2-5.9 0.1
2017-Feb-21 17:00S 73°24' W 106°54'6 6.2 090 / 25990.3 -1.9-5.9 0.2
2017-Feb-21 16:00S 73°30' W 106°48'6 6.2 080 / 27990.3 -1.8-5.9 0.2
2017-Feb-21 15:00S 73°36' W 106°42'6 6.2 080 / 29990.610.8 -1.8-6.4 0.3
2017-Feb-21 14:00S 73°42' W 106°36'3 3.4 070 / 27990.8 -1.6-5.8 0.4
2017-Feb-21 13:00S 73°42' W 106°24'6 6.2 080 / 23990.9 -1.6-4.7 0.5
2017-Feb-21 12:00S 73°48' W 106°18'6 6.2 080 / 27991.010.8 -1.4-4.5 0.4
2017-Feb-21 11:00S 73°54' W 106°12'6 6.0 080 / 25991.1 -1.3-4.8 0.4
2017-Feb-21 10:00S 74°00' W 106°12'6 6.2 080 / 23991.2 -1.1-4.7 0.2
2017-Feb-21 09:00S 74°06' W 106°06'3 3.3 060 / 27990.3 -1.1-5.3 0.2
2017-Feb-21 08:00S 74°06' W 105°54'8 7.8 070 / 23991.2 -0.8-4.7 0.4
2017-Feb-21 07:00S 74°12' W 105°36'3 3.3 070 / 21991.1 -0.5-4.9 0.4
2017-Feb-21 06:00S 74°12' W 105°24'7 6.8 060 / 19991.3 -0.3-4.3 0.3
2017-Feb-21 05:00S 74°18' W 105°12'5 4.9 050 / 17991.8 -0.4-4.2 0.1
2017-Feb-21 04:00S 74°18' W 104°54'6 6.2 040 / 23991.1 -0.6-3.5-0.1
2017-Feb-21 03:00S 74°24' W 104°48'3 3.2 040 / 25990.7 -0.6-3.7-0.1
2017-Feb-21 02:00S 74°24' W 105°00'3 3.2 090 / 14991.4 -0.5-3.6-0.1
2017-Feb-21 01:00S 74°24' W 104°48'0 0.0 080 / 16991.6 -0.6-4.0-0.1
2017-Feb-21 00:00S 74°24' W 104°48'2 1.6 070 / 16991.310.8 -0.5-3.7-0.1
2017-Feb-20 23:00S 74°24' W 104°42'0 0.0 050 / 16991.1 -0.5-3.6-0.1
2017-Feb-20 22:00S 74°24' W 104°42'0 0.0 050 / 16990.9 -0.5-3.4-0.1
2017-Feb-20 21:00S 74°24' W 104°42'6 3.0 060 / 14990.710.8 -0.8-4.0-0.1
2017-Feb-20 19:00S 74°18' W 104°42'1413.6 010 / 8990.5 -0.9-3.6-0.1
2017-Feb-20 18:00S 74°30' W 104°18'1312.7 070 / 17991.1 5.4 -1.1-4.3-0.3
2017-Feb-20 17:00S 74°36' W 103°36'1515.3 100 / 12991.4 -0.9-4.4-0.1
2017-Feb-20 16:00S 74°48' W 103°00'1111.2 100 / 10991.6 -1.4-3.8-0.2
2017-Feb-20 15:00S 74°54' W 102°24'9 8.7 100 / 10991.810.8 -2.2-4.4-0.2
2017-Feb-20 14:00S 75°00' W 102°00'0 0.0 110 / 12991.8 -3.9-6.6-0.3
2017-Feb-20 13:00S 75°00' W 102°00'1312.9 110 / 14991.5 -4.3-6.2 0.1
2017-Feb-20 12:00S 74°48' W 102°18'0 0.0 120 / 6991.410.8 -2.9-4.3-0.2
2017-Feb-20 11:00S 74°48' W 102°18'7 6.8 140 / 6991.4 -3.7-5.7-0.2
2017-Feb-20 10:00S 74°42' W 102°30'7 6.8 140 / 10991.2 -3.1-5.3-0.1
2017-Feb-20 09:00S 74°36' W 102°42'2 1.6 130 / 8991.2 -1.5-2.7-0.2
2017-Feb-20 08:00S 74°36' W 102°36'6 6.0 130 / 6991.5 -1.4-2.5-0.2
2017-Feb-20 07:00S 74°30' W 102°36'0 0.0 090 / 6991.7 -1.4-4.5-0.3
2017-Feb-20 06:00S 74°30' W 102°36'0 0.0 080 / 6991.7 -1.3-3.8-0.2
2017-Feb-20 05:00S 74°30' W 102°36'2 1.6 070 / 6991.7 -1.3-4.5-0.3
2017-Feb-20 04:00S 74°30' W 102°30'27 9.1 080 / 6991.8 -1.2-5.3-0.1
2017-Feb-20 01:00S 74°48' W 101°12'3 3.1 140 / 6992.6 -1.2-4.3-0.0
2017-Feb-20 00:00S 74°48' W 101°00'0 0.0 140 / 6992.627.0 -1.5-4.4 0.3
2017-Feb-19 22:00S 74°48' W 101°00'0 0.0 180 / 4992.9 -1.4-4.8 0.1
2017-Feb-19 21:00S 74°48' W 101°00'1111.2 110 / 2993.110.8 -1.9-5.2 0.1
2017-Feb-19 20:00S 74°42' W 101°36'0 0.0 130 / 2993.2 -1.3-5.0 0.1
2017-Feb-19 19:00S 74°42' W 101°36'0 0.0 050 / 2993.0 -1.1-4.8 0.2
2017-Feb-19 18:00S 74°42' W 101°36'0 0.0 320 / 2992.810.8 -0.1-6.0 0.2
2017-Feb-19 17:00S 74°42' W 101°36'0 0.0 070 / 2992.6 -0.9-5.9 0.3
2017-Feb-19 16:00S 74°42' W 101°36'0 0.0 050 / 4992.6 -1.1-6.4-0.0
2017-Feb-19 15:00S 74°42' W 101°36'2 1.6 060 / 2992.627.0 -0.2-5.0-0.0
2017-Feb-19 14:00S 74°42' W 101°42'1212.1 160 / 2992.6 -1.8-4.6-0.0
2017-Feb-19 13:00S 74°54' W 101°48'6 6.2 100 / 10993.0 -1.6-3.5-0.0
2017-Feb-19 12:00S 75°00' W 101°54'0 0.0 130 / 12993.210.8 -2.9-5.3-0.0
2017-Feb-19 11:00S 75°00' W 101°54'0 0.0 120 / 12993.1 -3.0-5.1 0.1
2017-Feb-19 10:00S 75°00' W 101°54'0 0.0 110 / 12993.1 -2.5-4.5 0.1
2017-Feb-19 09:00S 75°00' W 101°54'0 0.0 120 / 14993.2 -2.1-4.4-0.1
2017-Feb-19 08:00S 75°00' W 101°54'0 0.0 090 / 14993.3 -1.3-3.9 0.1
2017-Feb-19 07:00S 75°00' W 101°54'0 0.0 100 / 14993.4 -1.4-3.4 0.1
2017-Feb-19 06:00S 75°00' W 101°54'0 0.0 110 / 17993.6 -1.5-4.1 0.1
2017-Feb-19 05:00S 75°00' W 101°54'0 0.0 110 / 12994.1 -1.8-4.4 0.1
2017-Feb-19 04:00S 75°00' W 101°54'0 0.0 100 / 12994.2 -1.1-4.1 0.2
2017-Feb-19 03:00S 75°00' W 101°54'0 0.0 080 / 10994.5 -0.5-3.7 0.1
2017-Feb-19 02:00S 75°00' W 101°54'0 0.0 050 / 6994.9 -0.2-3.5 0.1
2017-Feb-19 01:00S 75°00' W 101°54'0 0.0 020 / 8995.0 -0.2-3.2 0.3
2017-Feb-19 00:00S 75°00' W 101°54'0 0.0 995.110.8 -0.1-1.6 0.2
2017-Feb-18 23:00S 75°00' W 101°54'0 0.0 090 / 6995.4 -0.1-2.4 0.2
2017-Feb-18 22:00S 75°00' W 101°54'0 0.0 100 / 6995.6 -0.0-3.6-0.0
2017-Feb-18 21:00S 75°00' W 101°54'0 0.0 110 / 6995.910.8 -0.4-3.9 0.2
2017-Feb-18 20:00S 75°00' W 101°54'5 4.7 130 / 6996.1 -1.6-3.7 0.3
2017-Feb-18 19:00S 75°00' W 102°12'6 6.2 330 / 8996.1 0.3-4.3-0.1
2017-Feb-18 18:00S 74°54' W 102°18'8 7.6 110 / 10996.0 5.4 -1.9-3.9-0.3
2017-Feb-18 17:00S 75°00' W 102°00'2 1.6 140 / 10996.0 -2.2-5.6-0.0
2017-Feb-18 16:00S 75°00' W 101°54'0 0.0 110 / 10996.2 -3.2-5.6 0.1
2017-Feb-18 15:00S 75°00' W 101°54'0 0.0 120 / 12996.210.8 -2.0-5.6-0.0
2017-Feb-18 14:00S 75°00' W 101°54'0 0.0 130 / 12996.1 -2.9-4.6-0.1
2017-Feb-18 13:00S 75°00' W 101°54'2 1.6 130 / 12996.3 -3.9-5.3-0.1
2017-Feb-18 12:00S 75°00' W 101°48'1413.5 110 / 14996.210.8 -2.7-5.2-0.1
2017-Feb-18 11:00S 74°48' W 101°24'6 6.3 090 / 14995.9 -0.6-4.2-0.1
2017-Feb-18 10:00S 74°48' W 101°00'9 8.7 060 / 19995.7 -2.3-6.3 0.1
2017-Feb-18 09:00S 74°42' W 101°24'5 4.7 060 / 19995.4 -1.1-6.0-0.1
2017-Feb-18 08:00S 74°42' W 101°42'2 1.6 090 / 16995.7 -1.3-5.5-0.0
2017-Feb-18 07:00S 74°42' W 101°36'8 7.9 080 / 14996.0 -0.5-5.7-0.0
2017-Feb-18 06:00S 74°42' W 101°06'7 6.8 070 / 14996.3 -1.4-5.4-0.0
2017-Feb-18 05:00S 74°48' W 100°54'   070 / 6996.3 -0.0-4.4 0.3

Dump ship's entire track history